Terminal Aerodrome Forecast
Issued by NWS Green Bay, WI

Home | Current Version | Previous Version | Text Only | Print | Product List | Glossary Off
Versions: 1 2 3 4 5 6 7 8 9 10 11 12 13 14 15 16 17 18 19 20 21 22 23 24 25 26 27 28 29 30 31 32 33 34

000
FTUS43 KGRB 251200 AAA
TAFGRB
TAF AMD
KGRB 251226Z 2512/2612 VRB03KT P6SM VCTS SCT014CB OVC100
      TEMPO 2512/2514 3SM SHRA BR BKN035
     FM251500 19007KT 6SM HZ BKN035 BKN070
     FM251900 21010G16KT 6SM HZ SCT040 PROB30 2522/2601 2SM TSRA
      OVC025CB
     FM260100 27004KT P6SM SCT040 SCT070
     FM260600 31005KT P6SM SCT050 BKN080=

USA.gov is the U.S. government's official web portal to all federal, state and local government web resources and services.